Time;durP1;ratioP1;P1;durP2;ratioP2;P2;SDS_P1;SDS_P2;PMS_P1;PMS_P2;Temp;Humidity;BMP_temperature;BMP_pressure;BME280_temperature;BME280_humidity;BME280_pressure;Samples;Min_cycle;Max_cycle;Signal;HPM_P1;HPM_P2
2023/05/03 00:00:09;;;;;;;13.60;8.52;;;8.50;99.90;;;;;;4991293;28;20116;-49
2023/05/03 00:02:37;;;;;;;23.88;13.80;;;8.50;99.90;;;;;;4991926;28;20038;-56
2023/05/03 00:05:03;;;;;;;11.05;5.65;;;8.40;99.90;;;;;;4991989;28;20033;-49
2023/05/03 00:07:29;;;;;;;7.55;4.55;;;8.40;99.90;;;;;;4991610;28;20433;-52
2023/05/03 00:09:54;;;;;;;13.18;5.43;;;8.30;99.90;;;;;;4991889;28;20033;-51
2023/05/03 00:12:20;;;;;;;10.52;4.65;;;8.30;99.90;;;;;;4991881;28;20038;-50
2023/05/03 00:14:45;;;;;;;12.98;5.57;;;8.30;99.90;;;;;;4974549;28;20062;-49
2023/05/03 00:17:11;;;;;;;8.60;5.25;;;8.30;99.90;;;;;;4991409;28;20041;-51
2023/05/03 00:19:38;;;;;;;11.93;4.75;;;8.20;99.90;;;;;;4991810;28;20035;-56
2023/05/03 00:22:04;;;;;;;12.65;5.10;;;8.20;99.90;;;;;;4991668;28;20029;-50
2023/05/03 00:24:29;;;;;;;12.30;4.93;;;8.10;99.90;;;;;;4991785;28;20475;-55
2023/05/03 00:26:55;;;;;;;10.25;5.30;;;8.10;99.90;;;;;;4991656;28;20511;-51
2023/05/03 00:29:21;;;;;;;9.95;5.68;;;8.10;99.90;;;;;;4991784;28;20394;-52
2023/05/03 00:31:47;;;;;;;18.08;6.65;;;8.10;99.90;;;;;;4991515;28;20022;-50
2023/05/03 00:34:12;;;;;;;8.63;5.85;;;8.00;99.90;;;;;;4991651;28;20084;-49
2023/05/03 00:36:38;;;;;;;9.52;5.15;;;8.00;99.90;;;;;;4991530;28;20030;-52
2023/05/03 00:39:04;;;;;;;8.95;5.22;;;8.00;99.90;;;;;;4991702;28;20105;-53
2023/05/03 00:41:29;;;;;;;11.75;5.38;;;8.00;99.90;;;;;;4991192;28;20122;-53
2023/05/03 00:43:55;;;;;;;9.02;5.32;;;8.00;99.90;;;;;;4991642;28;20046;-49
2023/05/03 00:46:20;;;;;;;11.10;5.15;;;7.90;99.90;;;;;;4991465;28;20022;-51
2023/05/03 00:48:48;;;;;;;15.15;5.45;;;7.80;99.90;;;;;;4991492;28;20024;-49
2023/05/03 00:51:14;;;;;;;9.70;5.10;;;7.80;99.90;;;;;;4991552;28;20105;-50
2023/05/03 00:53:43;;;;;;;9.20;5.13;;;7.80;99.90;;;;;;4991562;28;20030;-52
2023/05/03 00:56:10;;;;;;;13.23;5.70;;;7.70;99.90;;;;;;4991312;28;20085;-55
2023/05/03 00:58:38;;;;;;;11.48;5.68;;;7.70;99.90;;;;;;4991414;28;20026;-50
2023/05/03 01:01:06;;;;;;;15.15;6.35;;;7.70;99.90;;;;;;4973937;28;20037;-52
2023/05/03 01:03:31;;;;;;;15.60;5.50;;;7.70;99.90;;;;;;4991533;28;20027;-55
2023/05/03 01:06:00;;;;;;;11.68;6.53;;;7.60;99.90;;;;;;4991395;28;20037;-51
2023/05/03 01:08:34;;;;;;;9.95;5.50;;;7.60;99.90;;;;;;4991521;28;20429;-49
2023/05/03 01:11:00;;;;;;;10.32;5.75;;;7.60;99.90;;;;;;4993680;28;20025;-50
2023/05/03 01:13:34;;;;;;;12.18;5.32;;;7.50;99.90;;;;;;4994888;28;20474;-52
2023/05/03 01:16:05;;;;;;;11.23;5.50;;;7.50;99.90;;;;;;4994648;28;20081;-50
2023/05/03 01:18:36;;;;;;;9.70;5.45;;;7.50;99.90;;;;;;4995087;28;20026;-55
2023/05/03 01:21:04;;;;;;;9.50;5.85;;;7.40;99.90;;;;;;4994496;28;20034;-50
2023/05/03 01:23:39;;;;;;;12.02;5.38;;;7.40;99.90;;;;;;4994644;28;20022;-50
2023/05/03 01:26:15;;;;;;;;;;;7.30;99.90;;;;;;4994863;28;20031;-51
2023/05/03 01:28:40;;;;;;;16.70;5.70;;;7.30;99.90;;;;;;4994537;28;19952;-53
2023/05/03 01:31:06;;;;;;;10.65;7.20;;;7.20;99.90;;;;;;4994425;28;20062;-53
2023/05/03 01:33:55;;;;;;;17.30;6.47;;;7.20;99.90;;;;;;4994387;28;20146;-49
2023/05/03 01:36:25;;;;;;;15.40;6.35;;;7.20;99.90;;;;;;4994253;28;20022;-48
2023/05/03 01:38:51;;;;;;;13.25;6.13;;;7.10;99.90;;;;;;4994382;28;20034;-51
2023/05/03 01:41:18;;;;;;;16.65;6.40;;;7.10;99.90;;;;;;4993812;28;20490;-50
2023/05/03 01:43:45;;;;;;;16.65;6.63;;;7.00;99.90;;;;;;4994397;28;20109;-50
2023/05/03 01:46:10;;;;;;;15.20;5.95;;;7.00;99.90;;;;;;4994082;28;20026;-53
2023/05/03 01:48:36;;;;;;;14.45;5.63;;;6.90;99.90;;;;;;4994371;28;20336;-51
2023/05/03 01:51:02;;;;;;;11.88;6.22;;;7.00;99.90;;;;;;4993993;28;20022;-52
2023/05/03 01:53:27;;;;;;;8.38;5.60;;;7.00;99.90;;;;;;4993924;28;20030;-50
2023/05/03 01:55:53;;;;;;;12.07;5.68;;;7.00;99.90;;;;;;4993853;28;20034;-52
2023/05/03 01:58:18;;;;;;;13.38;5.85;;;6.90;99.90;;;;;;4994146;28;20058;-52
2023/05/03 02:00:44;;;;;;;10.75;6.50;;;6.90;99.90;;;;;;4993887;28;20022;-51
2023/05/03 02:03:10;;;;;;;8.77;5.65;;;6.80;99.90;;;;;;4993998;28;20030;-53
2023/05/03 02:05:35;;;;;;;10.05;5.93;;;6.80;99.90;;;;;;4993187;28;20053;-54
2023/05/03 02:08:01;;;;;;;9.65;6.28;;;6.80;99.90;;;;;;4993903;28;20487;-51
2023/05/03 02:10:26;;;;;;;13.85;7.38;;;6.80;99.90;;;;;;4994210;28;20034;-50
2023/05/03 02:12:52;;;;;;;12.38;7.40;;;6.70;99.90;;;;;;4993686;28;20548;-51
2023/05/03 02:15:18;;;;;;;17.02;6.38;;;6.70;99.90;;;;;;4993722;28;20390;-55
2023/05/03 02:17:46;;;;;;;12.48;7.20;;;6.70;99.90;;;;;;4993653;28;20018;-50
2023/05/03 02:20:12;;;;;;;11.90;6.57;;;6.70;99.90;;;;;;4994255;28;20014;-53
2023/05/03 02:22:37;;;;;;;13.88;6.80;;;6.60;99.90;;;;;;4992873;28;20034;-54
2023/05/03 02:25:04;;;;;;;12.70;6.47;;;6.50;99.90;;;;;;4993478;28;20022;-49
2023/05/03 02:27:29;;;;;;;11.38;6.03;;;6.50;99.90;;;;;;4993268;28;20026;-50
2023/05/03 02:29:55;;;;;;;12.52;6.72;;;6.50;99.90;;;;;;4993395;28;20045;-51
2023/05/03 02:32:21;;;;;;;9.25;6.00;;;6.40;99.90;;;;;;4993395;28;20034;-53
2023/05/03 02:34:48;;;;;;;14.23;6.40;;;6.40;99.90;;;;;;4993310;28;20026;-52
2023/05/03 02:37:13;;;;;;;12.75;6.35;;;6.40;99.90;;;;;;4993003;28;20454;-54
2023/05/03 02:39:39;;;;;;;8.15;6.15;;;6.40;99.90;;;;;;4992967;28;20037;-52
2023/05/03 02:42:05;;;;;;;16.30;6.55;;;6.40;99.90;;;;;;4993226;28;20034;-52
2023/05/03 02:44:30;;;;;;;10.60;5.70;;;6.30;99.90;;;;;;4993122;28;20037;-52
2023/05/03 02:46:56;;;;;;;12.38;6.35;;;6.20;99.90;;;;;;4992918;28;20060;-50
2023/05/03 02:49:22;;;;;;;11.40;6.90;;;6.30;99.90;;;;;;4993095;28;20022;-52
2023/05/03 02:51:47;;;;;;;13.45;6.55;;;6.20;99.90;;;;;;4992932;28;20022;-50
2023/05/03 02:54:13;;;;;;;11.75;6.93;;;6.20;99.90;;;;;;4992910;28;20117;-51
2023/05/03 02:56:39;;;;;;;15.63;6.57;;;6.20;99.90;;;;;;4992772;28;20061;-49
2023/05/03 02:59:04;;;;;;;12.98;6.20;;;6.20;99.90;;;;;;4992952;28;20026;-53
2023/05/03 03:01:32;;;;;;;16.95;6.97;;;6.10;99.90;;;;;;4992892;28;20035;-49
2023/05/03 03:03:58;;;;;;;11.18;7.18;;;6.20;99.90;;;;;;4992836;28;20153;-50
2023/05/03 03:06:23;;;;;;;10.85;7.38;;;6.10;99.90;;;;;;4992469;28;20114;-50
2023/05/03 03:08:49;;;;;;;12.95;6.80;;;6.10;99.90;;;;;;4992852;28;20025;-49
2023/05/03 03:11:14;;;;;;;14.13;6.90;;;6.10;99.90;;;;;;4992628;28;20482;-48
2023/05/03 03:13:40;;;;;;;14.98;7.20;;;6.00;99.90;;;;;;4992696;28;20027;-50
2023/05/03 03:16:06;;;;;;;10.82;7.13;;;6.00;99.90;;;;;;4992145;28;20030;-55
2023/05/03 03:18:33;;;;;;;11.75;7.78;;;6.10;99.90;;;;;;4992599;28;20545;-54
2023/05/03 03:21:00;;;;;;;12.63;7.45;;;6.00;99.90;;;;;;4992256;28;20030;-50
2023/05/03 03:23:25;;;;;;;13.73;7.50;;;6.00;99.90;;;;;;4992361;28;20105;-53
2023/05/03 03:25:51;;;;;;;13.70;7.05;;;6.00;99.90;;;;;;4992318;28;20101;-52
2023/05/03 03:28:17;;;;;;;19.33;7.60;;;6.10;99.90;;;;;;4992413;28;20482;-49
2023/05/03 03:30:43;;;;;;;14.30;7.05;;;6.00;99.90;;;;;;4992328;28;20023;-50
2023/05/03 03:33:08;;;;;;;12.77;6.97;;;6.00;99.90;;;;;;4991503;28;20022;-52
2023/05/03 03:35:35;;;;;;;15.20;7.13;;;6.00;99.90;;;;;;4991561;28;20030;-49
2023/05/03 03:38:02;;;;;;;12.90;6.55;;;6.00;99.90;;;;;;4992358;28;20067;-49
2023/05/03 03:40:27;;;;;;;15.13;7.35;;;6.00;99.90;;;;;;4991864;28;20022;-57
2023/05/03 03:42:53;;;;;;;14.88;7.63;;;5.90;99.90;;;;;;4992221;28;20041;-51
2023/05/03 03:45:18;;;;;;;15.20;6.97;;;5.90;99.90;;;;;;4992276;28;20026;-50
2023/05/03 03:47:44;;;;;;;11.25;7.28;;;5.80;99.90;;;;;;4991947;28;20089;-52
2023/05/03 03:50:09;;;;;;;21.88;6.70;;;5.70;99.90;;;;;;4991714;28;20613;-51
2023/05/03 03:52:35;;;;;;;17.17;7.80;;;5.70;99.90;;;;;;4992193;28;20034;-52
2023/05/03 03:55:01;;;;;;;16.50;6.93;;;5.70;99.90;;;;;;4992687;28;20082;-53
2023/05/03 03:57:29;;;;;;;11.27;6.32;;;5.70;99.90;;;;;;4991771;28;20038;-53
2023/05/03 03:59:55;;;;;;;18.33;8.38;;;5.70;99.90;;;;;;4991893;28;20390;-50
2023/05/03 04:02:21;;;;;;;17.52;7.15;;;5.60;99.90;;;;;;4991942;28;20066;-50
2023/05/03 04:04:46;;;;;;;15.52;7.05;;;5.60;99.90;;;;;;4992013;28;20081;-49
2023/05/03 04:07:12;;;;;;;12.45;7.95;;;5.60;99.90;;;;;;4991735;28;20403;-52
2023/05/03 04:09:37;;;;;;;14.85;7.47;;;5.60;99.90;;;;;;4991946;28;20105;-55
2023/05/03 04:12:03;;;;;;;11.25;7.57;;;5.60;99.90;;;;;;4991700;28;20038;-49
2023/05/03 04:14:29;;;;;;;16.83;7.20;;;5.60;99.90;;;;;;4991839;28;20054;-50
2023/05/03 04:16:54;;;;;;;14.27;8.13;;;5.60;99.90;;;;;;4991864;28;20449;-53
2023/05/03 04:19:21;;;;;;;17.60;7.60;;;5.70;99.90;;;;;;4991807;28;20033;-53
2023/05/03 04:21:47;;;;;;;15.95;8.25;;;5.70;99.90;;;;;;4991771;28;20433;-47
2023/05/03 04:24:14;;;;;;;14.35;7.45;;;5.80;99.90;;;;;;4991811;28;20023;-55
2023/05/03 04:26:40;;;;;;;15.48;6.60;;;5.80;99.90;;;;;;4991527;28;20121;-58
2023/05/03 04:29:05;;;;;;;17.70;7.95;;;5.90;99.90;;;;;;4991582;28;20090;-52
2023/05/03 04:31:31;;;;;;;10.63;7.10;;;5.90;99.90;;;;;;4991878;28;20033;-53
2023/05/03 04:33:57;;;;;;;12.70;6.70;;;5.90;99.90;;;;;;4992258;28;20556;-52
2023/05/03 04:36:25;;;;;;;11.27;6.55;;;5.90;99.90;;;;;;4991463;28;20490;-53
2023/05/03 04:38:51;;;;;;;14.13;6.60;;;6.00;99.90;;;;;;4991735;28;20019;-54
2023/05/03 04:41:16;;;;;;;14.32;7.88;;;6.00;99.90;;;;;;4991383;28;20033;-51
2023/05/03 04:43:42;;;;;;;14.60;6.88;;;6.10;99.90;;;;;;4974270;28;20481;-53
2023/05/03 04:46:09;;;;;;;12.15;7.35;;;6.20;99.90;;;;;;4994303;28;20022;-53
2023/05/03 04:48:35;;;;;;;15.60;7.18;;;6.20;99.90;;;;;;4995326;28;20061;-51
2023/05/03 04:51:00;;;;;;;9.65;6.70;;;6.30;99.90;;;;;;4995115;28;20031;-54
2023/05/03 04:53:26;;;;;;;14.75;6.57;;;6.50;99.90;;;;;;4995459;28;20062;-55
2023/05/03 04:55:51;;;;;;;10.73;6.43;;;6.80;99.90;;;;;;4995104;28;20498;-52
2023/05/03 04:58:17;;;;;;;10.43;6.15;;;7.30;99.90;;;;;;4995271;28;20414;-52
2023/05/03 05:00:44;;;;;;;14.43;6.00;;;7.80;99.90;;;;;;4994882;28;20030;-49
2023/05/03 05:03:09;;;;;;;11.65;6.22;;;8.20;99.90;;;;;;4994872;28;20030;-50
2023/05/03 05:05:35;;;;;;;12.80;6.32;;;8.40;99.90;;;;;;4994546;28;20033;-49
2023/05/03 05:08:00;;;;;;;10.23;6.40;;;8.70;99.90;;;;;;4995006;28;20030;-52
2023/05/03 05:10:26;;;;;;;11.98;6.00;;;8.80;99.90;;;;;;4994842;28;20241;-52
2023/05/03 05:12:51;;;;;;;11.82;6.85;;;9.20;99.90;;;;;;4994896;28;20111;-52
2023/05/03 05:15:17;;;;;;;9.68;5.38;;;9.40;99.90;;;;;;4994877;28;20033;-51
2023/05/03 05:17:43;;;;;;;10.30;5.88;;;9.50;99.90;;;;;;4994643;28;20030;-51
2023/05/03 05:20:11;;;;;;;9.75;5.35;;;9.50;99.90;;;;;;4994656;28;20438;-52
2023/05/03 05:22:38;;;;;;;12.65;5.93;;;9.50;99.90;;;;;;4994756;28;20245;-54
2023/05/03 05:25:05;;;;;;;13.10;5.82;;;9.50;99.90;;;;;;4994807;28;20026;-50
2023/05/03 05:27:30;;;;;;;13.02;6.32;;;9.80;99.90;;;;;;4994663;28;20026;-51
2023/05/03 05:29:56;;;;;;;11.80;5.65;;;10.20;99.90;;;;;;4994419;28;20360;-49
2023/05/03 05:32:21;;;;;;;10.23;5.43;;;10.10;99.90;;;;;;4994291;28;20076;-52
2023/05/03 05:34:51;;;;;;;7.88;5.10;;;9.80;99.90;;;;;;4994237;28;20030;-50
2023/05/03 05:37:17;;;;;;;10.65;4.80;;;9.90;99.90;;;;;;4994112;28;20053;-54
2023/05/03 05:39:43;;;;;;;8.43;5.32;;;10.10;99.90;;;;;;4994344;28;20030;-52
2023/05/03 05:42:09;;;;;;;14.98;6.20;;;10.40;99.90;;;;;;4976396;28;20033;-52
2023/05/03 05:44:34;;;;;;;8.70;6.10;;;11.00;99.90;;;;;;4976729;28;20031;-50
2023/05/03 05:47:00;;;;;;;7.70;4.43;;;11.10;99.90;;;;;;4993801;28;20065;-49
2023/05/03 05:49:25;;;;;;;7.60;5.28;;;11.50;99.90;;;;;;4994156;28;20022;-51
2023/05/03 05:51:51;;;;;;;11.73;5.18;;;11.80;99.80;;;;;;4994084;28;20041;-51
2023/05/03 05:54:16;;;;;;;9.52;4.55;;;12.10;98.90;;;;;;4994016;28;20030;-49
2023/05/03 05:56:42;;;;;;;14.75;5.03;;;12.40;98.50;;;;;;4992817;28;20023;-50
2023/05/03 05:59:07;;;;;;;6.00;4.20;;;12.80;97.90;;;;;;4976268;28;20030;-54
2023/05/03 06:01:33;;;;;;;11.25;5.05;;;13.10;97.30;;;;;;4993647;28;20030;-53
2023/05/03 06:03:58;;;;;;;12.00;4.68;;;13.50;96.10;;;;;;4993846;28;20092;-50
2023/05/03 06:06:25;;;;;;;15.20;4.93;;;13.30;96.70;;;;;;4993697;28;20037;-54
2023/05/03 06:08:50;;;;;;;9.52;4.57;;;13.50;95.70;;;;;;4993766;28;20023;-51
2023/05/03 06:11:17;;;;;;;10.25;4.95;;;13.20;95.90;;;;;;4993743;28;20516;-50
2023/05/03 06:13:42;;;;;;;6.72;4.85;;;13.40;95.60;;;;;;4993368;28;20030;-55
2023/05/03 06:16:09;;;;;;;10.95;4.82;;;13.30;95.80;;;;;;4993451;28;20545;-54
2023/05/03 06:18:35;;;;;;;6.82;4.72;;;13.50;95.60;;;;;;4993694;28;20109;-51
2023/05/03 06:21:00;;;;;;;10.80;4.35;;;13.50;95.70;;;;;;4993462;28;20117;-54
2023/05/03 06:23:26;;;;;;;10.50;4.47;;;13.30;95.70;;;;;;4993427;28;20469;-50
2023/05/03 06:25:52;;;;;;;9.60;4.57;;;13.10;95.80;;;;;;4994035;28;20021;-50
2023/05/03 06:28:18;;;;;;;7.78;4.47;;;13.70;95.70;;;;;;4993736;28;20031;-51
2023/05/03 06:30:48;;;;;;;11.65;4.50;;;13.80;94.90;;;;;;4993343;28;20105;-51
2023/05/03 06:33:14;;;;;;;8.80;4.20;;;14.10;95.00;;;;;;4993286;28;20023;-53
2023/05/03 06:35:39;;;;;;;7.32;4.18;;;14.00;94.50;;;;;;4993104;28;20037;-54
2023/05/03 06:38:06;;;;;;;9.40;4.95;;;13.90;94.60;;;;;;4993443;28;20022;-53
2023/05/03 06:40:32;;;;;;;9.20;4.03;;;13.70;95.10;;;;;;4992824;28;20050;-52
2023/05/03 06:42:57;;;;;;;6.18;3.80;;;14.20;94.70;;;;;;4993241;28;20514;-54
2023/05/03 06:45:23;;;;;;;7.10;4.13;;;14.00;94.00;;;;;;4975566;28;20546;-50
2023/05/03 06:47:49;;;;;;;6.15;4.10;;;14.30;93.90;;;;;;4975592;28;20101;-52
2023/05/03 06:50:14;;;;;;;9.50;4.22;;;14.30;93.30;;;;;;4993022;28;20022;-52
2023/05/03 06:52:40;;;;;;;7.05;3.25;;;14.30;94.30;;;;;;4993048;28;20057;-50
2023/05/03 06:55:06;;;;;;;6.80;3.65;;;15.70;93.50;;;;;;4993247;28;20445;-51
2023/05/03 06:57:31;;;;;;;9.73;3.70;;;16.20;91.40;;;;;;4993072;28;20030;-51
2023/05/03 06:59:57;;;;;;;7.53;3.63;;;17.00;90.80;;;;;;4992946;28;20033;-51
2023/05/03 07:02:24;;;;;;;8.75;3.70;;;17.20;88.80;;;;;;4992810;28;20054;-51
2023/05/03 07:04:50;;;;;;;11.25;4.15;;;17.10;89.10;;;;;;4992710;28;20025;-55
2023/05/03 07:07:15;;;;;;;8.85;3.60;;;16.50;89.30;;;;;;4974785;28;20030;-51
2023/05/03 07:09:41;;;;;;;6.57;3.72;;;16.20;90.10;;;;;;4992692;28;20034;-54
2023/05/03 07:12:07;;;;;;;8.10;3.47;;;16.20;89.90;;;;;;4992630;28;20030;-55
2023/05/03 07:14:32;;;;;;;8.70;3.90;;;16.00;90.00;;;;;;4987741;28;20037;-51
2023/05/03 07:16:58;;;;;;;7.22;3.88;;;15.40;90.80;;;;;;4991124;28;20453;-50
2023/05/03 07:19:23;;;;;;;6.57;3.75;;;14.90;91.20;;;;;;4992739;28;20034;-50
2023/05/03 07:21:50;;;;;;;5.78;3.55;;;14.40;92.20;;;;;;4992784;28;20027;-54
2023/05/03 07:24:15;;;;;;;4.15;3.17;;;14.60;92.10;;;;;;4992503;28;20103;-54
2023/05/03 07:26:41;;;;;;;7.00;3.80;;;14.70;92.30;;;;;;4996266;28;20511;-56
2023/05/03 07:29:06;;;;;;;7.60;4.22;;;15.40;92.20;;;;;;4991968;28;20117;-51
2023/05/03 07:31:32;;;;;;;10.80;4.05;;;16.10;90.50;;;;;;4991669;28;20390;-51
2023/05/03 07:33:57;;;;;;;6.60;3.80;;;16.30;90.30;;;;;;4961374;28;20026;-48
2023/05/03 07:36:23;;;;;;;7.80;3.72;;;16.30;90.20;;;;;;4972897;28;20447;-51
2023/05/03 07:38:48;;;;;;;5.43;3.15;;;16.40;90.50;;;;;;4992354;28;20033;-56
2023/05/03 07:41:14;;;;;;;8.18;3.10;;;16.70;90.30;;;;;;4991305;28;20034;-54
2023/05/03 07:43:39;;;;;;;11.40;3.40;;;17.20;90.60;;;;;;4992042;28;20038;-47
2023/05/03 07:46:05;;;;;;;7.15;3.60;;;18.10;87.30;;;;;;4991527;28;20027;-51
2023/05/03 07:48:30;;;;;;;14.38;4.00;;;18.30;86.70;;;;;;4992001;28;20035;-50
2023/05/03 07:50:56;;;;;;;7.50;3.97;;;18.30;86.00;;;;;;4992228;28;20037;-53
2023/05/03 07:53:21;;;;;;;8.57;3.38;;;18.10;85.50;;;;;;4992095;28;20038;-48
2023/05/03 07:55:47;;;;;;;8.27;3.58;;;18.20;85.50;;;;;;4991996;28;20560;-49
2023/05/03 07:58:13;;;;;;;7.22;3.90;;;17.50;86.20;;;;;;4991965;28;20069;-51
2023/05/03 08:00:38;;;;;;;6.95;4.22;;;18.10;86.70;;;;;;4991640;28;20352;-54
2023/05/03 08:03:05;;;;;;;6.82;3.72;;;18.10;86.50;;;;;;4991568;28;20329;-49
2023/05/03 08:05:30;;;;;;;8.55;4.05;;;18.10;86.30;;;;;;4991849;28;20026;-51
2023/05/03 08:07:56;;;;;;;9.98;3.90;;;17.70;86.70;;;;;;4974559;28;20080;-47
2023/05/03 08:10:21;;;;;;;8.32;3.95;;;17.60;87.80;;;;;;4991770;28;20025;-49
2023/05/03 08:12:47;;;;;;;10.00;3.80;;;17.60;87.50;;;;;;4991738;28;20057;-50
2023/05/03 08:15:13;;;;;;;7.20;3.25;;;18.20;86.50;;;;;;4991971;28;20042;-54
2023/05/03 08:17:43;;;;;;;8.50;3.42;;;18.30;86.30;;;;;;4991751;28;20026;-48
2023/05/03 08:20:10;;;;;;;7.15;3.50;;;18.50;85.50;;;;;;4993104;28;20034;-51
2023/05/03 08:22:37;;;;;;;7.30;3.53;;;19.10;85.80;;;;;;4995746;28;20026;-49
2023/05/03 08:25:03;;;;;;;7.45;3.30;;;20.20;82.40;;;;;;4978333;28;20441;-49
2023/05/03 08:27:32;;;;;;;7.63;3.65;;;20.10;83.00;;;;;;4995550;28;20088;-55
2023/05/03 08:30:00;;;;;;;7.75;3.92;;;20.40;81.60;;;;;;4996061;28;20049;-52
2023/05/03 08:32:26;;;;;;;5.63;3.40;;;20.30;82.20;;;;;;4995905;28;20045;-48
2023/05/03 08:34:53;;;;;;;6.15;3.47;;;20.10;82.80;;;;;;4996058;28;20359;-51
2023/05/03 08:37:19;;;;;;;7.93;4.15;;;19.50;83.00;;;;;;4995516;28;20037;-51
2023/05/03 08:39:46;;;;;;;9.00;3.78;;;19.20;82.60;;;;;;4995682;28;20027;-52
2023/05/03 08:42:11;;;;;;;5.95;3.53;;;19.10;83.20;;;;;;4995436;28;20513;-49
2023/05/03 08:44:46;;;;;;;6.63;4.07;;;19.40;84.40;;;;;;4995232;28;20038;-51
2023/05/03 08:47:14;;;;;;;8.30;4.18;;;18.80;83.40;;;;;;4995323;28;20022;-54
2023/05/03 08:49:41;;;;;;;7.82;4.25;;;18.80;84.80;;;;;;4995305;28;20022;-52
2023/05/03 08:52:10;;;;;;;14.13;4.57;;;17.50;86.20;;;;;;4995204;28;20034;-51
2023/05/03 08:54:35;;;;;;;14.13;4.60;;;17.30;87.20;;;;;;4995201;28;20085;-51
2023/05/03 08:57:01;;;;;;;8.65;4.43;;;17.00;89.20;;;;;;4995359;28;20030;-53
2023/05/03 08:59:28;;;;;;;9.15;5.00;;;16.70;89.20;;;;;;4995417;28;20040;-52
2023/05/03 09:01:53;;;;;;;7.45;4.20;;;16.50;89.10;;;;;;4995062;28;20052;-50
2023/05/03 09:04:19;;;;;;;9.60;4.43;;;16.40;90.30;;;;;;4995283;28;20026;-49
2023/05/03 09:06:44;;;;;;;14.73;4.65;;;16.60;90.20;;;;;;4994641;28;20026;-52
2023/05/03 09:09:10;;;;;;;14.23;5.72;;;16.60;90.30;;;;;;4994948;28;20026;-53
2023/05/03 09:11:38;;;;;;;7.20;4.32;;;16.70;90.00;;;;;;4994121;28;20060;-50
2023/05/03 09:14:13;;;;;;;11.40;4.35;;;16.60;90.50;;;;;;4994711;28;20042;-49
2023/05/03 09:16:39;;;;;;;7.70;4.40;;;16.70;90.10;;;;;;4994635;28;20037;-52
2023/05/03 09:19:08;;;;;;;10.52;4.70;;;16.60;90.10;;;;;;4994794;28;20026;-54
2023/05/03 09:21:34;;;;;;;43.17;7.60;;;16.40;90.40;;;;;;4994699;28;20027;-51
2023/05/03 09:24:02;;;;;;;17.10;5.00;;;16.30;90.80;;;;;;4994687;28;20026;-52
2023/05/03 09:26:33;;;;;;;4.95;4.53;;;16.40;90.90;;;;;;4994596;28;20030;-51
2023/05/03 09:29:01;;;;;;;7.05;4.97;;;16.40;91.00;;;;;;4994723;28;20023;-48
2023/05/03 09:31:28;;;;;;;9.15;4.82;;;16.40;90.60;;;;;;4994624;28;20429;-47
2023/05/03 09:33:54;;;;;;;6.88;4.50;;;16.60;90.90;;;;;;4994057;28;20030;-47
2023/05/03 09:36:20;;;;;;;8.30;4.57;;;16.50;91.00;;;;;;4993959;28;20113;-50
2023/05/03 09:38:46;;;;;;;8.80;4.75;;;16.50;91.00;;;;;;4994543;28;20022;-49
2023/05/03 09:41:11;;;;;;;23.05;10.90;;;16.50;91.70;;;;;;4994299;28;20081;-50
2023/05/03 09:43:51;;;;;;;14.20;6.88;;;16.50;91.00;;;;;;4994389;28;20023;-52
2023/05/03 09:46:17;;;;;;;14.15;5.47;;;16.40;90.70;;;;;;4993527;28;20073;-54
2023/05/03 09:48:43;;;;;;;11.48;5.60;;;16.30;90.70;;;;;;4994279;28;20015;-52
2023/05/03 09:51:09;;;;;;;8.70;4.28;;;16.50;91.20;;;;;;4994178;28;20022;-55
2023/05/03 09:53:37;;;;;;;11.27;4.95;;;16.30;91.60;;;;;;4994093;28;20023;-51
2023/05/03 09:56:13;;;;;;;8.63;5.40;;;16.10;91.50;;;;;;4993889;28;20033;-54
2023/05/03 09:58:40;;;;;;;9.05;4.65;;;16.00;91.60;;;;;;4994233;28;20033;-49
2023/05/03 10:01:06;;;;;;;9.10;5.38;;;15.80;91.90;;;;;;4994086;28;20545;-49
2023/05/03 10:03:42;;;;;;;11.02;5.47;;;16.00;91.80;;;;;;4994024;28;20026;-45
2023/05/03 10:06:22;;;;;;;8.20;5.32;;;15.80;91.60;;;;;;4993594;28;20030;-51
2023/05/03 10:08:56;;;;;;;12.20;5.25;;;15.80;92.00;;;;;;4993861;28;20023;-50
2023/05/03 10:11:25;;;;;;;8.63;5.25;;;15.70;92.10;;;;;;4993894;28;20050;-49
2023/05/03 10:13:51;;;;;;;6.85;4.88;;;15.80;92.50;;;;;;4993701;28;20032;-54
2023/05/03 10:16:23;;;;;;;6.53;4.78;;;15.80;92.50;;;;;;4993511;28;20105;-52
2023/05/03 10:19:27;;;;;;;8.20;5.03;;;16.00;92.60;;;;;;4993774;28;20088;-50
2023/05/03 10:22:06;;;;;;;11.38;4.65;;;15.90;91.70;;;;;;4993689;28;20037;-52
2023/05/03 10:24:33;;;;;;;7.82;5.80;;;16.00;92.40;;;;;;4993589;28;20033;-52
2023/05/03 10:26:58;;;;;;;7.93;4.90;;;16.10;92.30;;;;;;4993372;28;20526;-54
2023/05/03 10:29:33;;;;;;;9.50;5.53;;;15.90;92.00;;;;;;4993623;28;20061;-53
2023/05/03 10:31:59;;;;;;;7.53;5.40;;;15.80;92.30;;;;;;4994394;28;20033;-49
2023/05/03 10:34:31;;;;;;;11.85;5.50;;;15.80;92.10;;;;;;4994465;28;20038;-49
2023/05/03 10:37:01;;;;;;;6.95;5.65;;;15.70;91.90;;;;;;4993142;28;20092;-53
2023/05/03 10:39:27;;;;;;;7.45;5.20;;;15.70;92.00;;;;;;4993464;28;20019;-52
2023/05/03 10:42:02;;;;;;;7.97;5.22;;;15.70;91.80;;;;;;4993114;28;20109;-47
2023/05/03 10:44:50;;;;;;;8.15;4.90;;;15.80;91.90;;;;;;4991376;28;20023;-49
2023/05/03 10:47:16;;;;;;;8.57;6.28;;;15.70;92.00;;;;;;4990482;28;20394;-52
2023/05/03 10:49:42;;;;;;;7.22;5.18;;;15.80;92.10;;;;;;5012517;28;20030;-50
2023/05/03 10:52:39;;;;;;;7.95;5.28;;;15.80;92.30;;;;;;4994530;28;20390;-54
2023/05/03 10:55:16;;;;;;;10.00;5.00;;;15.70;91.40;;;;;;4992972;28;20379;-54
2023/05/03 10:57:45;;;;;;;6.57;4.85;;;15.90;92.10;;;;;;4991764;28;20027;-50
2023/05/03 11:00:32;;;;;;;9.55;5.05;;;16.20;90.60;;;;;;4992275;28;20030;-54
2023/05/03 11:03:17;;;;;;;10.10;4.85;;;16.10;90.80;;;;;;4973507;28;20035;-50
2023/05/03 11:05:43;;;;;;;6.40;4.65;;;16.10;91.40;;;;;;4983129;28;20014;-53
2023/05/03 11:08:13;;;;;;;7.80;4.55;;;16.10;91.00;;;;;;4992836;28;20041;-50
2023/05/03 11:10:40;;;;;;;8.25;4.45;;;16.00;91.30;;;;;;4992546;28;20029;-52
2023/05/03 11:13:06;;;;;;;8.98;4.95;;;16.00;90.70;;;;;;4992700;28;20054;-51
2023/05/03 11:15:32;;;;;;;7.03;4.30;;;15.90;90.60;;;;;;4992576;28;20132;-54
2023/05/03 11:17:58;;;;;;;7.07;4.38;;;15.90;91.00;;;;;;4992140;28;20498;-52
2023/05/03 11:20:24;;;;;;;9.82;4.35;;;15.90;91.30;;;;;;4992345;28;20042;-53
2023/05/03 11:22:51;;;;;;;7.65;4.10;;;15.90;90.80;;;;;;4992340;28;20033;-52
2023/05/03 11:25:17;;;;;;;6.35;4.38;;;16.00;91.20;;;;;;4992537;28;20029;-54
2023/05/03 11:27:43;;;;;;;8.38;4.47;;;16.00;91.30;;;;;;5002225;28;20034;-50
2023/05/03 11:30:09;;;;;;;6.15;4.50;;;16.10;91.10;;;;;;5010540;28;20018;-45
2023/05/03 11:32:35;;;;;;;14.65;7.50;;;16.10;90.90;;;;;;4990299;28;20031;-45
2023/05/03 11:35:04;;;;;;;46.22;30.58;;;16.20;91.50;;;;;;4992135;28;20053;-47
2023/05/03 11:37:31;;;;;;;14.73;8.05;;;16.20;90.70;;;;;;4991921;28;20465;-47
2023/05/03 11:39:57;;;;;;;6.65;3.75;;;16.30;91.70;;;;;;4992042;28;20088;-53
2023/05/03 11:42:24;;;;;;;7.15;3.58;;;16.30;89.70;;;;;;4992302;28;20431;-47
2023/05/03 11:44:51;;;;;;;4.20;3.80;;;16.30;90.10;;;;;;4992275;28;20386;-47
2023/05/03 11:47:17;;;;;;;6.80;4.32;;;16.40;90.00;;;;;;5007903;28;20052;-50
2023/05/03 11:49:56;;;;;;;8.55;4.53;;;16.30;90.60;;;;;;5011556;28;20526;-50
2023/05/03 11:52:23;;;;;;;8.38;3.70;;;16.40;89.70;;;;;;5012003;28;20108;-49
2023/05/03 11:54:49;;;;;;;7.40;4.18;;;16.30;89.90;;;;;;4997275;28;20035;-46
2023/05/03 11:57:15;;;;;;;5.50;4.03;;;16.30;90.00;;;;;;4991879;28;20042;-46
2023/05/03 11:59:42;;;;;;;7.85;3.92;;;16.20;89.30;;;;;;4991894;28;20023;-46
2023/05/03 12:02:09;;;;;;;9.60;4.63;;;16.20;89.60;;;;;;4974472;28;20026;-47
2023/05/03 12:04:42;;;;;;;9.00;3.42;;;16.20;87.90;;;;;;4991976;28;20065;-47
2023/05/03 12:07:10;;;;;;;3.95;3.50;;;16.20;88.50;;;;;;4991713;28;20027;-47
2023/05/03 12:09:36;;;;;;;9.50;3.58;;;16.20;89.00;;;;;;4991946;28;20093;-48
2023/05/03 12:12:02;;;;;;;14.23;5.13;;;16.20;87.90;;;;;;4991805;28;20105;-56
2023/05/03 12:14:28;;;;;;;4.03;3.08;;;16.20;88.50;;;;;;5004738;28;20045;-47
2023/05/03 12:16:54;;;;;;;4.20;3.10;;;16.20;88.20;;;;;;5011732;28;20069;-46
2023/05/03 12:19:27;;;;;;;6.38;3.08;;;16.30;89.30;;;;;;5011631;28;20446;-49
2023/05/03 12:21:53;;;;;;;6.20;3.08;;;16.30;87.90;;;;;;5011238;28;20041;-46
2023/05/03 12:24:21;;;;;;;7.07;3.88;;;16.40;86.60;;;;;;4993347;28;20532;-46
2023/05/03 12:26:48;;;;;;;6.22;3.92;;;16.20;86.70;;;;;;4992966;28;20478;-46
2023/05/03 12:29:15;;;;;;;6.10;3.75;;;16.40;87.90;;;;;;4992005;28;20053;-50
2023/05/03 12:31:41;;;;;;;4.43;3.00;;;16.40;86.30;;;;;;4973838;28;20078;-53
2023/05/03 12:34:07;;;;;;;14.68;3.05;;;16.50;86.30;;;;;;4991260;28;20033;-53
2023/05/03 12:36:32;;;;;;;7.88;3.40;;;16.50;87.30;;;;;;4991285;28;20030;-45
2023/05/03 12:38:59;;;;;;;7.00;3.28;;;16.50;88.40;;;;;;4997783;28;20062;-45
2023/05/03 12:41:26;;;;;;;9.90;2.90;;;16.60;86.00;;;;;;4978005;28;20030;-46
2023/05/03 12:43:52;;;;;;;4.68;2.38;;;16.50;85.90;;;;;;4993648;28;20019;-46